createdAt,value
2023-01-29T00:00:09.124Z,88.00
2023-01-29T00:01:09.107Z,87.90
2023-01-29T00:02:09.245Z,87.93
2023-01-29T00:03:09.130Z,87.93
2023-01-29T00:04:09.038Z,87.83
2023-01-29T00:05:25.940Z,87.62
2023-01-29T00:06:09.033Z,87.52
2023-01-29T00:07:09.043Z,87.41
2023-01-29T00:08:09.007Z,87.41
2023-01-29T00:09:08.985Z,87.30
2023-01-29T00:10:09.018Z,87.10
2023-01-29T00:11:08.947Z,86.78
2023-01-29T00:12:08.947Z,86.40
2023-01-29T00:13:08.959Z,87.24
2023-01-29T00:14:08.924Z,87.98
2023-01-29T00:15:08.896Z,88.12
2023-01-29T00:16:08.905Z,88.23
2023-01-29T00:17:08.998Z,88.44
2023-01-29T00:18:08.896Z,88.54
2023-01-29T00:19:08.855Z,88.23
2023-01-29T00:20:08.831Z,87.91
2023-01-29T00:21:08.827Z,87.70
2023-01-29T00:22:08.836Z,87.28
2023-01-29T00:23:08.848Z,87.00
2023-01-29T00:24:08.824Z,87.11
2023-01-29T00:25:08.797Z,87.42
2023-01-29T00:26:08.765Z,87.74
2023-01-29T00:27:08.747Z,88.20
2023-01-29T00:28:08.746Z,88.62
2023-01-29T00:29:08.743Z,88.83
2023-01-29T00:30:08.756Z,88.83
2023-01-29T00:31:08.808Z,88.83
2023-01-29T00:32:08.927Z,88.62
2023-01-29T00:33:08.675Z,88.31
2023-01-29T00:34:08.667Z,88.10
2023-01-29T00:35:08.646Z,87.88
2023-01-29T00:36:08.643Z,87.78
2023-01-29T00:37:08.649Z,88.24
2023-01-29T00:38:08.611Z,88.87
2023-01-29T00:39:08.613Z,89.40
2023-01-29T00:40:08.589Z,89.72
2023-01-29T00:41:08.578Z,89.61
2023-01-29T00:42:08.548Z,89.51
2023-01-29T00:43:08.531Z,89.51
2023-01-29T00:44:08.549Z,89.29
2023-01-29T00:45:08.521Z,89.19
2023-01-29T00:46:08.493Z,89.09
2023-01-29T00:47:08.486Z,88.87
2023-01-29T00:48:08.501Z,88.66
2023-01-29T00:49:08.492Z,88.35
2023-01-29T00:50:08.464Z,88.24
2023-01-29T00:51:08.490Z,88.03
2023-01-29T00:52:08.434Z,87.82
2023-01-29T00:53:08.419Z,87.61
2023-01-29T00:54:08.435Z,87.50
2023-01-29T00:55:08.395Z,87.61
2023-01-29T00:56:08.415Z,87.71
2023-01-29T00:57:08.394Z,88.03
2023-01-29T00:58:08.347Z,88.24
2023-01-29T00:59:08.341Z,88.45
2023-01-29T01:00:08.361Z,88.87
2023-01-29T01:01:08.404Z,89.29
2023-01-29T01:02:08.363Z,89.61
2023-01-29T01:03:08.362Z,90.08
2023-01-29T01:04:08.280Z,90.18
2023-01-29T01:05:08.335Z,90.28
2023-01-29T01:06:08.258Z,90.39
2023-01-29T01:07:08.278Z,90.50
2023-01-29T01:08:08.221Z,90.70
2023-01-29T01:09:08.205Z,90.92
2023-01-29T01:10:08.197Z,91.02
2023-01-29T01:11:08.171Z,91.09
2023-01-29T01:12:08.203Z,91.19
2023-01-29T01:13:08.142Z,91.41
2023-01-29T01:14:08.137Z,91.51
2023-01-29T01:15:08.122Z,91.51
2023-01-29T01:16:08.118Z,91.41
2023-01-29T01:17:08.126Z,91.30
2023-01-29T01:18:08.095Z,91.36
2023-01-29T01:19:08.109Z,91.26
2023-01-29T01:20:08.057Z,91.47
2023-01-29T01:21:08.049Z,91.68
2023-01-29T01:22:08.065Z,91.78
2023-01-29T01:23:08.023Z,92.14
2023-01-29T01:24:08.063Z,92.21
2023-01-29T01:25:08.005Z,92.21
2023-01-29T01:26:08.003Z,92.21
2023-01-29T01:27:07.977Z,92.21
2023-01-29T01:28:07.996Z,92.31
2023-01-29T01:29:07.937Z,92.31
2023-01-29T01:30:07.939Z,92.21
2023-01-29T01:31:08.037Z,92.10
2023-01-29T01:32:07.911Z,91.89
2023-01-29T01:33:07.918Z,91.89
2023-01-29T01:34:07.876Z,92.10
2023-01-29T01:35:07.852Z,92.10
2023-01-29T01:36:07.882Z,92.06
2023-01-29T01:37:07.860Z,92.16
2023-01-29T01:38:07.834Z,92.16
2023-01-29T01:39:07.817Z,92.27
2023-01-29T01:40:07.814Z,92.38
2023-01-29T01:41:07.794Z,92.38
2023-01-29T01:42:07.821Z,92.27
2023-01-29T01:43:07.777Z,92.38
2023-01-29T01:44:07.745Z,92.38
2023-01-29T01:45:07.728Z,92.48
2023-01-29T01:46:07.793Z,92.38
2023-01-29T01:47:07.730Z,92.33
2023-01-29T01:48:07.775Z,92.12
2023-01-29T01:49:07.712Z,91.91
2023-01-29T01:50:07.696Z,91.81
2023-01-29T01:51:07.690Z,91.81
2023-01-29T01:52:07.662Z,91.70
2023-01-29T01:53:07.728Z,91.70
2023-01-29T01:54:07.631Z,91.81
2023-01-29T01:55:07.603Z,92.02
2023-01-29T01:56:07.600Z,92.12
2023-01-29T01:57:07.585Z,92.12
2023-01-29T01:58:07.597Z,92.44
2023-01-29T01:59:07.560Z,92.54
2023-01-29T02:00:07.534Z,92.86
2023-01-29T02:01:07.582Z,92.96
2023-01-29T02:02:07.528Z,92.96
2023-01-29T02:03:07.586Z,92.86
2023-01-29T02:04:07.492Z,92.65
2023-01-29T02:05:07.483Z,92.65
2023-01-29T02:06:07.459Z,92.54
2023-01-29T02:07:07.442Z,92.54
2023-01-29T02:08:07.472Z,92.33
2023-01-29T02:09:07.431Z,92.23
2023-01-29T02:10:07.437Z,92.12
2023-01-29T02:11:07.397Z,92.02
2023-01-29T02:12:07.394Z,92.12
2023-01-29T02:13:07.408Z,92.12
2023-01-29T02:14:07.357Z,92.02
2023-01-29T02:15:07.342Z,91.91
2023-01-29T02:16:07.335Z,91.81
2023-01-29T02:17:07.337Z,91.81
2023-01-29T02:18:07.340Z,91.81
2023-01-29T02:19:07.318Z,91.70
2023-01-29T02:20:07.305Z,91.70
2023-01-29T02:21:07.272Z,91.81
2023-01-29T02:22:07.260Z,91.81
2023-01-29T02:23:07.239Z,91.70
2023-01-29T02:24:07.346Z,91.60
2023-01-29T02:25:07.228Z,91.49
2023-01-29T02:26:07.220Z,91.49
2023-01-29T02:27:07.210Z,91.39
2023-01-29T02:28:07.180Z,91.60
2023-01-29T02:29:07.152Z,91.60
2023-01-29T02:30:07.173Z,91.49
2023-01-29T02:31:07.224Z,91.49
2023-01-29T02:32:07.178Z,91.60
2023-01-29T02:33:07.112Z,91.60
2023-01-29T02:34:07.128Z,91.49
2023-01-29T02:35:07.106Z,91.39
2023-01-29T02:36:07.069Z,91.39
2023-01-29T02:37:07.059Z,91.49
2023-01-29T02:38:07.036Z,91.35
2023-01-29T02:39:07.041Z,91.35
2023-01-29T02:40:07.049Z,91.24
2023-01-29T02:41:07.010Z,91.13
2023-01-29T02:42:06.982Z,91.13
2023-01-29T02:43:06.985Z,91.13
2023-01-29T02:44:06.969Z,91.13
2023-01-29T02:45:06.959Z,91.24
2023-01-29T02:46:07.004Z,91.45
2023-01-29T02:47:06.937Z,91.45
2023-01-29T02:48:06.936Z,91.45
2023-01-29T02:49:06.906Z,91.55
2023-01-29T02:50:06.901Z,91.87
2023-01-29T02:51:07.009Z,91.97
2023-01-29T02:52:06.863Z,91.97
2023-01-29T02:53:06.872Z,92.08
2023-01-29T02:54:06.832Z,91.97
2023-01-29T02:55:06.825Z,91.87
2023-01-29T02:56:06.817Z,91.77
2023-01-29T02:57:06.811Z,91.66
2023-01-29T02:58:06.785Z,91.66
2023-01-29T02:59:06.764Z,91.55
2023-01-29T03:00:06.756Z,91.66
2023-01-29T03:01:06.817Z,91.55
2023-01-29T03:02:06.795Z,91.55
2023-01-29T03:03:06.716Z,91.55
2023-01-29T03:04:06.722Z,91.55
2023-01-29T03:05:06.702Z,91.66
2023-01-29T03:06:06.747Z,91.66
2023-01-29T03:07:06.700Z,91.55
2023-01-29T03:08:06.648Z,91.45
2023-01-29T03:09:06.640Z,91.45
2023-01-29T03:10:06.617Z,91.45
2023-01-29T03:11:06.655Z,91.55
2023-01-29T03:12:06.607Z,91.55
2023-01-29T03:13:06.590Z,91.66
2023-01-29T03:14:06.590Z,91.66
2023-01-29T03:15:06.577Z,91.66
2023-01-29T03:16:06.567Z,91.77
2023-01-29T03:17:06.621Z,91.87
2023-01-29T03:18:06.524Z,91.97
2023-01-29T03:19:06.651Z,91.97
2023-01-29T03:20:06.494Z,91.97
2023-01-29T03:21:06.505Z,92.08
2023-01-29T03:22:06.485Z,92.19
2023-01-29T03:23:06.459Z,92.29
2023-01-29T03:24:06.531Z,92.29
2023-01-29T03:25:06.438Z,92.29
2023-01-29T03:26:06.451Z,92.50
2023-01-29T03:27:06.410Z,92.50
2023-01-29T03:28:06.424Z,92.50
2023-01-29T03:29:06.381Z,92.40
2023-01-29T03:30:06.359Z,92.29
2023-01-29T03:31:06.421Z,92.19
2023-01-29T03:32:06.462Z,92.08
2023-01-29T03:33:06.359Z,91.97
2023-01-29T03:34:06.320Z,91.97
2023-01-29T03:35:06.313Z,91.97
2023-01-29T03:36:06.290Z,91.87
2023-01-29T03:37:06.265Z,91.77
2023-01-29T03:38:06.273Z,91.72
2023-01-29T03:39:06.279Z,91.62
2023-01-29T03:40:06.251Z,91.41
2023-01-29T03:41:06.233Z,91.41
2023-01-29T03:42:06.236Z,91.30
2023-01-29T03:43:06.184Z,91.30
2023-01-29T03:44:06.231Z,91.24
2023-01-29T03:45:06.168Z,91.45
2023-01-29T03:46:06.174Z,91.45
2023-01-29T03:47:06.146Z,91.55
2023-01-29T03:48:06.166Z,91.66
2023-01-29T03:49:06.148Z,91.55
2023-01-29T03:50:06.269Z,91.55
2023-01-29T03:51:06.104Z,91.55
2023-01-29T03:52:06.085Z,91.55
2023-01-29T03:53:06.092Z,91.77
2023-01-29T03:54:06.051Z,91.87
2023-01-29T03:55:06.032Z,91.97
2023-01-29T03:56:06.015Z,91.97
2023-01-29T03:57:06.009Z,92.08
2023-01-29T03:58:06.027Z,92.08
2023-01-29T03:59:06.014Z,91.97
2023-01-29T04:00:05.970Z,91.83
2023-01-29T04:01:06.024Z,91.93
2023-01-29T04:02:05.944Z,91.93
2023-01-29T04:03:05.964Z,91.83
2023-01-29T04:04:05.975Z,91.72
2023-01-29T04:05:05.963Z,91.51
2023-01-29T04:06:05.894Z,91.20
2023-01-29T04:07:05.903Z,90.99
2023-01-29T04:08:05.880Z,90.88
2023-01-29T04:09:05.865Z,90.78
2023-01-29T04:10:05.851Z,90.88
2023-01-29T04:11:05.826Z,90.88
2023-01-29T04:12:05.855Z,90.88
2023-01-29T04:13:05.835Z,91.09
2023-01-29T04:14:05.793Z,91.30
2023-01-29T04:15:05.808Z,91.30
2023-01-29T04:16:05.778Z,91.09
2023-01-29T04:17:05.755Z,91.13
2023-01-29T04:18:05.750Z,91.13
2023-01-29T04:19:05.724Z,91.13
2023-01-29T04:20:05.747Z,91.13
2023-01-29T04:21:05.697Z,91.24
2023-01-29T04:22:05.696Z,91.55
2023-01-29T04:23:05.676Z,91.66
2023-01-29T04:24:05.721Z,91.77
2023-01-29T04:25:05.691Z,91.87
2023-01-29T04:26:05.673Z,91.87
2023-01-29T04:27:05.613Z,91.77
2023-01-29T04:28:05.597Z,91.77
2023-01-29T04:29:05.597Z,91.45
2023-01-29T04:30:05.599Z,91.24
2023-01-29T04:31:05.817Z,91.03
2023-01-29T04:32:05.567Z,90.82
2023-01-29T04:33:05.556Z,90.71
2023-01-29T04:34:05.556Z,90.71
2023-01-29T04:35:05.543Z,90.82
2023-01-29T04:36:05.531Z,90.82
2023-01-29T04:37:05.516Z,90.61
2023-01-29T04:38:05.481Z,90.44
2023-01-29T04:39:05.459Z,90.33
2023-01-29T04:40:05.488Z,90.12
2023-01-29T04:41:05.470Z,90.01
2023-01-29T04:42:05.439Z,90.01
2023-01-29T04:43:05.434Z,90.12
2023-01-29T04:44:05.391Z,90.01
2023-01-29T04:45:05.387Z,89.91
2023-01-29T04:46:05.373Z,89.81
2023-01-29T04:47:05.418Z,90.01
2023-01-29T04:48:05.362Z,90.12
2023-01-29T04:49:05.369Z,90.23
2023-01-29T04:50:05.331Z,90.33
2023-01-29T04:51:05.308Z,90.33
2023-01-29T04:52:05.336Z,90.69
2023-01-29T04:53:05.318Z,91.00
2023-01-29T04:54:05.280Z,91.00
2023-01-29T04:55:05.304Z,90.37
2023-01-29T04:56:05.251Z,89.84
2023-01-29T04:57:05.262Z,89.84
2023-01-29T04:58:05.251Z,89.84
2023-01-29T04:59:05.220Z,90.06
2023-01-29T05:00:05.181Z,89.95
2023-01-29T05:01:05.203Z,90.06
2023-01-29T05:02:05.169Z,90.26
2023-01-29T05:03:05.282Z,90.37
2023-01-29T05:04:05.141Z,90.20
2023-01-29T05:05:05.164Z,90.20
2023-01-29T05:06:05.121Z,90.41
2023-01-29T05:07:05.111Z,90.52
2023-01-29T05:08:05.115Z,90.62
2023-01-29T05:09:05.087Z,90.52
2023-01-29T05:10:05.087Z,90.20
2023-01-29T05:11:05.044Z,89.61
2023-01-29T05:12:05.037Z,89.61
2023-01-29T05:13:05.059Z,89.40
2023-01-29T05:14:05.021Z,89.29
2023-01-29T05:15:05.032Z,89.29
2023-01-29T05:16:05.036Z,89.29
2023-01-29T05:17:04.985Z,88.87
2023-01-29T05:18:04.997Z,88.49
2023-01-29T05:19:04.956Z,88.49
2023-01-29T05:20:04.935Z,88.49
2023-01-29T05:21:04.931Z,88.49
2023-01-29T05:22:04.911Z,88.60
2023-01-29T05:23:04.925Z,88.60
2023-01-29T05:24:04.932Z,88.60
2023-01-29T05:25:04.880Z,88.60
2023-01-29T05:26:04.853Z,88.75
2023-01-29T05:27:04.847Z,88.85
2023-01-29T05:28:04.845Z,89.06
2023-01-29T05:29:04.853Z,88.53
2023-01-29T05:30:04.809Z,88.11
2023-01-29T05:31:04.919Z,88.21
2023-01-29T05:32:04.775Z,89.20
2023-01-29T05:33:04.759Z,89.84
2023-01-29T05:34:04.790Z,90.05
2023-01-29T05:35:04.753Z,90.47
2023-01-29T05:36:06.163Z,90.16
2023-01-29T05:37:04.718Z,89.73
2023-01-29T05:38:04.689Z,90.37
2023-01-29T05:39:04.700Z,90.94
2023-01-29T05:40:04.694Z,90.83
2023-01-29T05:41:04.670Z,90.62
2023-01-29T05:42:04.649Z,90.52
2023-01-29T05:43:04.635Z,90.30
2023-01-29T05:44:04.625Z,90.20
2023-01-29T05:45:04.637Z,89.88
2023-01-29T05:46:04.609Z,89.67
2023-01-29T05:47:04.603Z,89.35
2023-01-29T05:48:04.569Z,89.25
2023-01-29T05:49:04.602Z,89.14
2023-01-29T05:50:04.605Z,89.25
2023-01-29T05:51:04.533Z,89.25
2023-01-29T05:52:04.515Z,89.03
2023-01-29T05:53:04.513Z,88.93
2023-01-29T05:54:04.485Z,88.40
2023-01-29T05:55:04.495Z,88.19
2023-01-29T05:56:04.484Z,88.19
2023-01-29T05:57:04.461Z,88.19
2023-01-29T05:58:05.939Z,88.29
2023-01-29T05:59:04.458Z,88.09
2023-01-29T06:00:04.429Z,87.98
2023-01-29T06:01:04.398Z,87.55
2023-01-29T06:02:04.528Z,87.55
2023-01-29T06:03:04.507Z,87.49
2023-01-29T06:04:04.396Z,87.28
2023-01-29T06:05:04.457Z,87.63
2023-01-29T06:06:04.432Z,87.85
2023-01-29T06:07:04.326Z,88.17
2023-01-29T06:08:04.321Z,88.59
2023-01-29T06:09:04.308Z,88.90
2023-01-29T06:10:04.318Z,89.01
2023-01-29T06:11:04.278Z,88.90
2023-01-29T06:12:04.267Z,88.80
2023-01-29T06:13:04.264Z,88.90
2023-01-29T06:14:04.280Z,88.90
2023-01-29T06:15:04.227Z,88.80
2023-01-29T06:16:04.241Z,88.80
2023-01-29T06:17:04.208Z,88.80
2023-01-29T06:18:04.212Z,88.69
2023-01-29T06:19:04.196Z,89.01
2023-01-29T06:20:04.163Z,89.79
2023-01-29T06:21:04.179Z,89.96
2023-01-29T06:22:04.149Z,89.86
2023-01-29T06:23:04.112Z,89.32
2023-01-29T06:24:04.187Z,89.54
2023-01-29T06:25:04.103Z,89.43
2023-01-29T06:26:04.090Z,89.54
2023-01-29T06:27:04.070Z,89.47
2023-01-29T06:28:04.062Z,88.73
2023-01-29T06:29:04.067Z,88.62
2023-01-29T06:30:04.038Z,88.42
2023-01-29T06:31:22.202Z,87.57
2023-01-29T06:32:04.133Z,87.36
2023-01-29T06:33:04.017Z,87.46
2023-01-29T06:34:03.991Z,87.36
2023-01-29T06:35:03.966Z,87.15
2023-01-29T06:36:03.958Z,87.68
2023-01-29T06:37:03.979Z,88.31
2023-01-29T06:38:03.926Z,88.10
2023-01-29T06:39:03.997Z,87.78
2023-01-29T06:40:03.925Z,88.13
2023-01-29T06:41:03.905Z,88.56
2023-01-29T06:42:03.891Z,89.09
2023-01-29T06:43:03.863Z,89.30
2023-01-29T06:44:03.848Z,89.09
2023-01-29T06:45:03.862Z,88.77
2023-01-29T06:46:03.878Z,88.56
2023-01-29T06:47:03.843Z,88.35
2023-01-29T06:48:03.847Z,88.45
2023-01-29T06:49:03.786Z,88.56
2023-01-29T06:50:03.838Z,88.56
2023-01-29T06:51:03.933Z,88.98
2023-01-29T06:52:03.823Z,89.45
2023-01-29T06:53:03.719Z,89.98
2023-01-29T06:54:03.729Z,89.87
2023-01-29T06:55:03.718Z,89.55
2023-01-29T06:56:03.726Z,89.34
2023-01-29T06:57:03.710Z,89.23
2023-01-29T06:58:03.677Z,88.92
2023-01-29T06:59:03.660Z,88.81
2023-01-29T07:00:03.667Z,88.60
2023-01-29T07:01:03.745Z,88.92
2023-01-29T07:02:03.673Z,88.49
2023-01-29T07:03:03.611Z,88.64
2023-01-29T07:04:03.638Z,89.06
2023-01-29T07:05:03.624Z,88.96
2023-01-29T07:06:03.581Z,89.06
2023-01-29T07:07:03.590Z,89.06
2023-01-29T07:08:03.585Z,88.96
2023-01-29T07:09:03.541Z,89.70
2023-01-29T07:10:03.527Z,90.55
2023-01-29T07:11:03.514Z,90.82
2023-01-29T07:12:03.530Z,90.72
2023-01-29T07:13:03.512Z,90.40
2023-01-29T07:14:03.507Z,89.66
2023-01-29T07:15:03.448Z,88.92
2023-01-29T07:16:03.546Z,88.49
2023-01-29T07:17:03.426Z,88.49
2023-01-29T07:18:03.455Z,88.53
2023-01-29T07:19:03.429Z,88.43
2023-01-29T07:20:03.383Z,88.43
2023-01-29T07:21:03.402Z,88.43
2023-01-29T07:22:03.362Z,88.11
2023-01-29T07:23:03.360Z,88.01
2023-01-29T07:24:03.392Z,89.06
2023-01-29T07:25:03.360Z,89.17
2023-01-29T07:26:03.321Z,88.96
2023-01-29T07:27:03.296Z,88.75
2023-01-29T07:28:03.290Z,88.64
2023-01-29T07:29:03.305Z,88.53
2023-01-29T07:30:03.259Z,88.53
2023-01-29T07:31:03.274Z,88.32
2023-01-29T07:32:03.298Z,88.21
2023-01-29T07:33:04.392Z,88.21
2023-01-29T07:34:03.217Z,88.53
2023-01-29T07:35:03.231Z,88.85
2023-01-29T07:36:03.177Z,88.85
2023-01-29T07:37:03.175Z,88.75
2023-01-29T07:38:03.172Z,88.64
2023-01-29T07:39:03.142Z,88.75
2023-01-29T07:40:03.171Z,89.17
2023-01-29T07:41:03.432Z,89.59
2023-01-29T07:42:03.098Z,89.91
2023-01-29T07:43:03.092Z,90.12
2023-01-29T07:44:03.097Z,90.33
2023-01-29T07:45:03.093Z,89.91
2023-01-29T07:46:03.135Z,89.06
2023-01-29T07:47:03.059Z,89.28
2023-01-29T07:48:03.036Z,89.38
2023-01-29T07:49:03.039Z,89.49
2023-01-29T07:50:03.009Z,89.81
2023-01-29T07:51:03.028Z,89.91
2023-01-29T07:52:03.017Z,89.91
2023-01-29T07:53:02.989Z,90.23
2023-01-29T07:54:02.961Z,90.01
2023-01-29T07:55:02.944Z,89.70
2023-01-29T07:56:02.939Z,89.45
2023-01-29T07:57:02.905Z,89.70
2023-01-29T07:58:02.941Z,89.49
2023-01-29T07:59:02.892Z,89.17
2023-01-29T08:00:02.874Z,88.96
2023-01-29T08:01:02.903Z,88.64
2023-01-29T08:02:02.927Z,88.64
2023-01-29T08:03:02.829Z,88.96
2023-01-29T08:04:32.955Z,88.85
2023-01-29T08:05:02.808Z,89.17
2023-01-29T08:06:02.857Z,89.28
2023-01-29T08:07:02.779Z,88.85
2023-01-29T08:08:06.937Z,88.64
2023-01-29T08:09:02.752Z,88.64
2023-01-29T08:10:02.766Z,88.53
2023-01-29T08:11:02.767Z,88.32
2023-01-29T08:12:02.710Z,88.32
2023-01-29T08:13:02.707Z,88.21
2023-01-29T08:14:02.689Z,88.32
2023-01-29T08:15:02.703Z,88.11
2023-01-29T08:16:02.709Z,88.07
2023-01-29T08:17:02.673Z,88.28
2023-01-29T08:18:02.643Z,88.49
2023-01-29T08:19:02.638Z,88.49
2023-01-29T08:20:02.620Z,88.45
2023-01-29T08:21:02.641Z,88.45
2023-01-29T08:22:02.607Z,88.67
2023-01-29T08:23:02.617Z,88.24
2023-01-29T08:24:02.696Z,87.82
2023-01-29T08:25:08.181Z,87.82
2023-01-29T08:26:02.592Z,87.50
2023-01-29T08:27:02.665Z,87.93
2023-01-29T08:28:02.510Z,88.56
2023-01-29T08:29:02.511Z,88.88
2023-01-29T08:30:02.504Z,89.09
2023-01-29T08:31:02.606Z,90.15
2023-01-29T08:32:02.504Z,90.74
2023-01-29T08:33:02.478Z,90.53
2023-01-29T08:34:02.476Z,89.96
2023-01-29T08:35:02.434Z,89.71
2023-01-29T08:36:02.437Z,89.56
2023-01-29T08:37:02.395Z,89.10
2023-01-29T08:38:02.394Z,88.78
2023-01-29T08:39:02.384Z,88.01
2023-01-29T08:40:02.362Z,87.54
2023-01-29T08:41:02.367Z,87.19
2023-01-29T08:42:02.349Z,87.04
2023-01-29T08:43:03.173Z,86.72
2023-01-29T08:44:02.346Z,86.58
2023-01-29T08:45:02.308Z,86.12
2023-01-29T08:46:02.301Z,85.55
2023-01-29T08:47:04.180Z,84.57
2023-01-29T08:48:02.261Z,83.59
2023-01-29T08:49:02.262Z,83.23
2023-01-29T08:50:02.221Z,81.97
2023-01-29T08:51:02.232Z,81.30
2023-01-29T08:52:03.195Z,81.05
2023-01-29T08:53:02.206Z,80.81
2023-01-29T08:54:02.204Z,79.69
2023-01-29T08:55:02.155Z,78.81
2023-01-29T08:56:02.213Z,77.48
2023-01-29T08:57:02.139Z,77.20
2023-01-29T08:58:02.164Z,74.98
2023-01-29T08:59:02.105Z,74.31
2023-01-29T09:00:02.122Z,72.71
2023-01-29T09:01:02.122Z,71.53
2023-01-29T09:02:02.128Z,70.98
2023-01-29T09:03:02.100Z,70.66
2023-01-29T09:04:02.071Z,70.00
2023-01-29T09:05:02.034Z,69.79
2023-01-29T09:06:02.023Z,69.82
2023-01-29T09:07:02.007Z,70.66
2023-01-29T09:08:02.045Z,70.32
2023-01-29T09:09:01.978Z,69.97
2023-01-29T09:10:01.985Z,69.56
2023-01-29T09:11:01.970Z,69.00
2023-01-29T09:12:01.977Z,68.38
2023-01-29T09:13:01.941Z,68.27
2023-01-29T09:14:01.909Z,68.24
2023-01-29T09:15:01.947Z,67.82
2023-01-29T09:16:01.883Z,68.87
2023-01-29T09:17:01.882Z,68.76
2023-01-29T09:18:01.877Z,68.66
2023-01-29T09:19:01.854Z,67.41
2023-01-29T09:20:01.946Z,67.72
2023-01-29T09:21:01.815Z,68.24
2023-01-29T09:22:01.809Z,68.10
2023-01-29T09:23:01.804Z,66.93
2023-01-29T09:24:01.786Z,65.68
2023-01-29T09:25:01.830Z,66.06
2023-01-29T09:26:01.761Z,66.14
2023-01-29T09:27:01.753Z,65.20
2023-01-29T09:28:01.723Z,65.28
2023-01-29T09:29:01.725Z,65.14
2023-01-29T09:30:01.764Z,64.39
2023-01-29T09:31:01.829Z,63.84
2023-01-29T09:32:01.674Z,63.01
2023-01-29T09:33:01.683Z,62.28
2023-01-29T09:34:01.659Z,61.84
2023-01-29T09:35:01.668Z,62.07
2023-01-29T09:36:01.635Z,61.35
2023-01-29T09:37:01.600Z,62.70
2023-01-29T09:38:01.592Z,62.90
2023-01-29T09:39:01.651Z,62.38
2023-01-29T09:40:01.582Z,62.18
2023-01-29T09:41:01.562Z,62.38
2023-01-29T09:42:01.573Z,61.35
2023-01-29T09:43:01.559Z,61.97
2023-01-29T09:44:01.548Z,61.97
2023-01-29T09:45:01.497Z,62.18
2023-01-29T09:46:01.601Z,62.80
2023-01-29T09:47:01.535Z,62.38
2023-01-29T09:48:01.509Z,61.87
2023-01-29T09:49:01.448Z,62.38
2023-01-29T09:50:01.439Z,62.18
2023-01-29T09:51:01.467Z,61.63
2023-01-29T09:52:01.407Z,60.91
2023-01-29T09:53:01.413Z,60.80
2023-01-29T09:54:01.383Z,61.50
2023-01-29T09:55:01.394Z,61.29
2023-01-29T09:56:01.365Z,60.98
2023-01-29T09:57:01.340Z,60.22
2023-01-29T09:58:01.347Z,60.43
2023-01-29T09:59:01.916Z,59.71
2023-01-29T10:00:01.291Z,59.91
2023-01-29T10:01:01.278Z,60.33
2023-01-29T10:02:01.380Z,59.99
2023-01-29T10:03:01.291Z,59.99
2023-01-29T10:04:01.247Z,59.75
2023-01-29T10:05:01.232Z,59.24
2023-01-29T10:06:01.211Z,58.83
2023-01-29T10:07:01.195Z,58.69
2023-01-29T10:08:01.205Z,58.80
2023-01-29T10:09:01.188Z,57.53
2023-01-29T10:10:01.171Z,57.84
2023-01-29T10:11:01.165Z,57.45
2023-01-29T10:12:01.142Z,57.68
2023-01-29T10:13:01.117Z,58.41
2023-01-29T10:14:01.107Z,58.69
2023-01-29T10:15:01.100Z,58.18
2023-01-29T10:16:01.099Z,57.73
2023-01-29T10:17:01.178Z,57.01
2023-01-29T10:18:01.062Z,57.01
2023-01-29T10:19:01.065Z,57.01
2023-01-29T10:20:01.038Z,57.42
2023-01-29T10:21:01.009Z,57.12
2023-01-29T10:22:00.990Z,56.60
2023-01-29T10:23:00.986Z,56.39
2023-01-29T10:24:00.993Z,56.60
2023-01-29T10:25:00.956Z,56.29
2023-01-29T10:26:00.957Z,55.74
2023-01-29T10:27:00.936Z,56.16
2023-01-29T10:28:00.939Z,55.15
2023-01-29T10:29:00.896Z,56.05
2023-01-29T10:30:00.921Z,56.05
2023-01-29T10:31:01.016Z,54.17
2023-01-29T10:32:01.044Z,55.20
2023-01-29T10:33:00.850Z,54.35
2023-01-29T10:34:02.712Z,52.00
2023-01-29T10:35:00.865Z,52.87
2023-01-29T10:36:00.812Z,54.43
2023-01-29T10:37:00.790Z,55.56
2023-01-29T10:38:00.776Z,54.71
2023-01-29T10:39:00.759Z,54.89
2023-01-29T10:40:00.786Z,54.04
2023-01-29T10:41:00.733Z,53.29
2023-01-29T10:42:00.723Z,52.67
2023-01-29T10:43:00.711Z,52.65
2023-01-29T10:44:00.737Z,52.00
2023-01-29T10:45:00.695Z,51.78
2023-01-29T10:46:00.693Z,50.95
2023-01-29T10:47:00.726Z,50.54
2023-01-29T10:48:00.670Z,50.35
2023-01-29T10:49:00.662Z,50.79
2023-01-29T10:50:00.623Z,52.34
2023-01-29T10:51:00.626Z,51.79
2023-01-29T10:52:00.603Z,50.25
2023-01-29T10:53:00.580Z,50.74
2023-01-29T10:54:00.592Z,50.23
2023-01-29T10:55:00.552Z,51.05
2023-01-29T10:56:02.515Z,50.82
2023-01-29T10:57:00.528Z,50.90
2023-01-29T10:58:02.247Z,49.98
2023-01-29T10:59:00.519Z,49.87
2023-01-29T11:00:00.479Z,49.46
2023-01-29T11:01:00.520Z,49.05
2023-01-29T11:02:00.556Z,49.87
2023-01-29T11:03:00.615Z,49.98
2023-01-29T11:04:00.433Z,49.77
2023-01-29T11:05:00.435Z,49.25
2023-01-29T11:06:00.435Z,48.74
2023-01-29T11:07:00.402Z,49.66
2023-01-29T11:08:00.390Z,49.35
2023-01-29T11:09:00.384Z,49.95
2023-01-29T11:10:00.349Z,49.23
2023-01-29T11:11:00.366Z,48.33
2023-01-29T11:12:00.351Z,48.63
2023-01-29T11:13:00.301Z,49.15
2023-01-29T11:14:00.287Z,49.15
2023-01-29T11:15:00.293Z,49.13
2023-01-29T11:16:00.304Z,48.90
2023-01-29T11:17:00.305Z,48.80
2023-01-29T11:18:00.261Z,48.69
2023-01-29T11:19:00.224Z,47.77
2023-01-29T11:20:00.236Z,47.35
2023-01-29T11:21:00.212Z,48.28
2023-01-29T11:22:00.187Z,48.07
2023-01-29T11:23:00.163Z,47.95
2023-01-29T11:24:00.150Z,47.85
2023-01-29T11:25:00.162Z,47.54
2023-01-29T11:26:00.132Z,47.82
2023-01-29T11:27:00.131Z,46.51
2023-01-29T11:28:00.117Z,46.10
2023-01-29T11:29:00.108Z,47.02
2023-01-29T11:30:00.110Z,47.54
2023-01-29T11:31:00.240Z,47.41
2023-01-29T11:32:00.076Z,47.41
2023-01-29T11:33:00.049Z,48.01
2023-01-29T11:34:00.032Z,47.60
2023-01-29T11:35:00.037Z,47.16
2023-01-29T11:36:00.051Z,46.44
2023-01-29T11:36:59.962Z,47.16
2023-01-29T11:37:59.968Z,46.14
2023-01-29T11:38:59.957Z,46.34
2023-01-29T11:39:59.945Z,46.03
2023-01-29T11:40:59.916Z,46.03
2023-01-29T11:41:59.940Z,45.91
2023-01-29T11:42:59.898Z,45.91
2023-01-29T11:43:59.988Z,45.91
2023-01-29T11:44:59.879Z,45.40
2023-01-29T11:45:59.875Z,45.01
2023-01-29T11:46:59.840Z,45.19
2023-01-29T11:47:59.876Z,44.80
2023-01-29T11:49:14.142Z,45.10
2023-01-29T11:49:59.813Z,45.21
2023-01-29T11:50:59.794Z,46.03
2023-01-29T11:51:59.775Z,46.11
2023-01-29T11:52:59.797Z,46.94
2023-01-29T11:53:59.771Z,47.34
2023-01-29T11:54:59.740Z,46.40
2023-01-29T11:55:59.723Z,46.20
2023-01-29T11:56:59.703Z,44.96
2023-01-29T11:57:59.697Z,45.89
2023-01-29T11:58:59.723Z,45.89
2023-01-29T11:59:59.664Z,46.40
2023-01-29T12:00:59.645Z,47.20
2023-01-29T12:01:59.640Z,46.58
2023-01-29T12:02:59.629Z,45.56
2023-01-29T12:03:59.699Z,45.76
2023-01-29T12:04:59.615Z,45.68
2023-01-29T12:05:59.610Z,45.58
2023-01-29T12:06:59.602Z,45.27
2023-01-29T12:07:59.550Z,45.81
2023-01-29T12:08:59.619Z,46.44
2023-01-29T12:09:59.569Z,47.49
2023-01-29T12:10:59.541Z,47.39
2023-01-29T12:11:59.518Z,46.96
2023-01-29T12:12:59.491Z,46.57
2023-01-29T12:13:59.480Z,46.26
2023-01-29T12:14:59.490Z,47.19
2023-01-29T12:15:59.491Z,46.77
2023-01-29T12:16:59.428Z,46.39
2023-01-29T12:17:59.421Z,47.13
2023-01-29T12:18:59.443Z,47.85
2023-01-29T12:19:59.385Z,47.87
2023-01-29T12:20:59.396Z,47.77
2023-01-29T12:22:00.013Z,47.77
2023-01-29T12:22:59.347Z,47.77
2023-01-29T12:23:59.343Z,48.90
2023-01-29T12:24:59.349Z,49.00
2023-01-29T12:25:59.328Z,49.29
2023-01-29T12:26:59.297Z,48.05
2023-01-29T12:27:59.302Z,47.54
2023-01-29T12:28:59.271Z,47.54
2023-01-29T12:29:59.304Z,47.52
2023-01-29T12:30:59.371Z,47.52
2023-01-29T12:31:59.256Z,48.03
2023-01-29T12:32:59.216Z,47.72
2023-01-29T12:33:59.241Z,47.82
2023-01-29T12:34:59.191Z,47.72
2023-01-29T12:35:59.176Z,47.20
2023-01-29T12:36:59.164Z,47.31
2023-01-29T12:37:59.157Z,47.82
2023-01-29T12:38:59.140Z,46.80
2023-01-29T12:39:59.152Z,46.80
2023-01-29T12:40:59.112Z,46.28
2023-01-29T12:41:59.096Z,45.46
2023-01-29T12:42:59.206Z,45.48
2023-01-29T12:43:59.071Z,45.81
2023-01-29T12:44:59.055Z,47.45
2023-01-29T12:45:59.048Z,46.47
2023-01-29T12:46:59.043Z,48.12
2023-01-29T12:47:59.034Z,49.23
2023-01-29T12:48:58.999Z,48.49
2023-01-29T12:49:58.983Z,47.74
2023-01-29T12:50:58.975Z,45.62
2023-01-29T12:51:58.983Z,46.49